createdAt,value
2017-12-03T04:42:12.671Z,5.27
2017-12-03T04:44:39.476Z,4.23
2017-12-03T04:47:06.263Z,5.50
2017-12-03T04:49:33.129Z,4.60
2017-12-03T04:51:59.900Z,4.37
2017-12-03T04:54:26.703Z,5.00
2017-12-03T04:56:54.442Z,4.77
2017-12-03T04:59:21.224Z,6.30
2017-12-03T05:01:48.002Z,6.40
2017-12-03T05:04:14.861Z,7.50
2017-12-03T05:06:41.649Z,5.70
2017-12-03T05:09:08.475Z,3.37
2017-12-03T05:11:35.289Z,6.03
2017-12-03T05:14:02.077Z,6.60
2017-12-03T05:16:28.854Z,5.70
2017-12-03T05:18:55.681Z,6.10
2017-12-03T05:21:22.472Z,6.60
2017-12-03T05:23:49.256Z,4.57
2017-12-03T05:26:16.069Z,4.20
2017-12-03T05:28:42.851Z,7.20
2017-12-03T05:31:09.627Z,7.43
2017-12-03T05:33:36.457Z,9.20
2017-12-03T05:36:03.250Z,6.50
2017-12-03T05:38:30.046Z,4.73
2017-12-03T05:40:56.847Z,5.67
2017-12-03T05:43:23.653Z,6.47
2017-12-03T05:45:50.435Z,5.73
2017-12-03T05:48:17.274Z,4.17
2017-12-03T05:50:44.023Z,6.87
2017-12-03T05:53:10.787Z,8.33
2017-12-03T05:55:37.601Z,5.97
2017-12-03T05:58:04.374Z,5.80
2017-12-03T06:00:31.137Z,6.90
2017-12-03T06:02:57.947Z,6.00
2017-12-03T06:05:24.733Z,5.70
2017-12-03T06:07:51.503Z,6.73
2017-12-03T06:10:18.296Z,5.90
2017-12-03T06:12:45.085Z,4.57
2017-12-03T06:15:11.921Z,5.30
2017-12-03T06:17:38.750Z,4.90
2017-12-03T06:20:05.515Z,5.63
2017-12-03T06:22:32.264Z,6.37
2017-12-03T06:24:59.099Z,5.67
2017-12-03T06:27:25.966Z,6.03
2017-12-03T06:29:52.765Z,5.60
2017-12-03T06:32:19.550Z,4.17
2017-12-03T06:34:46.355Z,6.27
2017-12-03T06:37:13.141Z,5.63
2017-12-03T06:39:39.961Z,6.40
2017-12-03T06:42:06.749Z,6.20
2017-12-03T06:44:33.526Z,3.60
2017-12-03T06:47:00.362Z,6.03
2017-12-03T06:49:27.163Z,6.23
2017-12-03T06:51:53.953Z,5.90
2017-12-03T06:54:20.760Z,3.40
2017-12-03T06:56:47.535Z,5.63
2017-12-03T06:59:14.342Z,3.37
2017-12-03T07:01:41.161Z,5.70
2017-12-03T07:04:07.948Z,4.47
2017-12-03T07:06:34.742Z,5.20
2017-12-03T07:09:01.567Z,6.70
2017-12-03T07:11:28.359Z,7.07
2017-12-03T07:13:55.135Z,5.40
2017-12-03T07:16:21.964Z,6.13
2017-12-03T07:18:48.803Z,2.77
2017-12-03T07:21:15.614Z,4.60
2017-12-03T07:23:42.440Z,5.90
2017-12-03T07:26:09.222Z,6.10
2017-12-03T07:28:36.041Z,7.00
2017-12-03T07:31:02.848Z,5.20
2017-12-03T07:33:29.744Z,6.60
2017-12-03T07:35:56.549Z,6.50
2017-12-03T07:38:23.394Z,5.40
2017-12-03T07:40:50.201Z,6.17
2017-12-03T07:43:16.954Z,6.70
2017-12-03T07:45:43.775Z,5.83
2017-12-03T07:48:10.574Z,4.77
2017-12-03T07:50:37.339Z,4.40
2017-12-03T07:53:04.201Z,4.87
2017-12-03T07:55:31.001Z,6.20
2017-12-03T07:57:57.775Z,3.10
2017-12-03T08:00:24.617Z,2.47
2017-12-03T08:02:51.402Z,4.17
2017-12-03T08:05:18.197Z,4.40
2017-12-03T08:07:45.006Z,6.13
2017-12-03T08:10:11.776Z,5.47
2017-12-03T08:12:38.574Z,5.00
2017-12-03T08:15:05.390Z,6.60
2017-12-03T08:17:32.169Z,5.87
2017-12-03T08:19:58.962Z,6.63
2017-12-03T08:22:25.787Z,5.00
2017-12-03T08:24:52.771Z,7.90
2017-12-03T08:27:19.530Z,5.10
2017-12-03T08:29:46.357Z,4.47
2017-12-03T08:32:13.374Z,7.10
2017-12-03T08:34:40.157Z,5.10
2017-12-03T08:37:06.981Z,5.47
2017-12-03T08:39:33.790Z,6.17
2017-12-03T08:42:00.559Z,5.67
2017-12-03T08:44:27.370Z,6.20
2017-12-03T08:46:54.158Z,6.07
2017-12-03T08:49:20.958Z,7.07
2017-12-03T08:51:47.776Z,6.10
2017-12-03T08:54:14.538Z,5.30
2017-12-03T08:56:41.302Z,5.50
2017-12-03T08:59:08.109Z,6.83
2017-12-03T09:01:34.896Z,7.00
2017-12-03T09:04:01.697Z,5.43
2017-12-03T09:06:28.514Z,5.20
2017-12-03T09:08:55.306Z,3.57
2017-12-03T09:11:22.086Z,6.77
2017-12-03T09:13:48.918Z,7.37
2017-12-03T09:16:15.710Z,7.13
2017-12-03T09:18:42.604Z,8.03
2017-12-03T09:21:09.435Z,7.50
2017-12-03T09:23:36.226Z,8.67
2017-12-03T09:26:03.018Z,7.00
2017-12-03T09:28:29.827Z,6.70
2017-12-03T09:30:56.587Z,6.27
2017-12-03T09:33:24.112Z,5.97
2017-12-03T09:35:50.930Z,7.33
2017-12-03T09:38:17.720Z,6.03
2017-12-03T09:40:44.529Z,6.87
2017-12-03T09:43:11.350Z,5.50
2017-12-03T09:45:38.149Z,5.30
2017-12-03T09:48:04.987Z,6.93
2017-12-03T09:50:31.855Z,7.03
2017-12-03T09:52:58.650Z,6.20
2017-12-03T09:55:25.411Z,6.40
2017-12-03T09:57:52.244Z,5.87
2017-12-03T10:00:19.007Z,7.13
2017-12-03T10:02:45.793Z,5.83
2017-12-03T10:05:12.621Z,6.30
2017-12-03T10:07:39.395Z,6.97
2017-12-03T10:10:06.195Z,5.90
2017-12-03T10:12:33.011Z,6.60
2017-12-03T10:14:59.790Z,6.47
2017-12-03T10:17:26.557Z,7.10
2017-12-03T10:19:53.377Z,5.90
2017-12-03T10:22:20.160Z,5.13
2017-12-03T10:24:46.960Z,7.00
2017-12-03T10:27:13.781Z,7.70
2017-12-03T10:29:40.590Z,7.27
2017-12-03T10:32:07.365Z,5.50
2017-12-03T10:34:34.183Z,5.70
2017-12-03T10:37:01.021Z,5.50
2017-12-03T10:39:27.833Z,5.50
2017-12-03T10:41:54.629Z,5.80
2017-12-03T10:44:21.378Z,6.40
2017-12-03T10:46:48.148Z,3.90
2017-12-03T10:49:14.960Z,7.07
2017-12-03T10:51:41.738Z,5.40
2017-12-03T10:54:08.525Z,6.47
2017-12-03T10:56:35.322Z,6.93
2017-12-03T10:59:02.127Z,6.13
2017-12-03T11:01:28.890Z,7.17
2017-12-03T11:03:55.674Z,6.13
2017-12-03T11:06:22.470Z,6.57
2017-12-03T11:08:49.268Z,6.30
2017-12-03T11:11:16.082Z,6.67
2017-12-03T11:13:42.870Z,6.47
2017-12-03T11:16:09.821Z,7.00
2017-12-03T11:18:36.623Z,9.23
2017-12-03T11:21:03.423Z,6.90
2017-12-03T11:23:30.164Z,6.43
2017-12-03T11:25:56.955Z,8.17
2017-12-03T11:28:23.747Z,7.87
2017-12-03T11:30:50.523Z,7.37
2017-12-03T11:33:18.261Z,7.50
2017-12-03T11:35:45.004Z,6.20
2017-12-03T11:38:11.744Z,7.43
2017-12-03T11:40:38.537Z,7.80
2017-12-03T11:43:06.980Z,7.87
2017-12-03T11:45:33.737Z,7.40
2017-12-03T11:48:00.539Z,7.37
2017-12-03T11:50:27.297Z,8.77
2017-12-03T11:52:54.047Z,7.83
2017-12-03T11:55:20.858Z,8.07
2017-12-03T11:57:47.654Z,8.60
2017-12-03T12:00:14.439Z,7.80
2017-12-03T12:02:41.219Z,7.93
2017-12-03T12:05:07.994Z,8.60
2017-12-03T12:07:34.785Z,7.30
2017-12-03T12:10:01.574Z,8.40
2017-12-03T12:12:28.326Z,9.27
2017-12-03T12:14:55.102Z,8.90
2017-12-03T12:17:21.892Z,6.90
2017-12-03T12:19:48.674Z,7.10
2017-12-03T12:22:15.475Z,8.50
2017-12-03T12:24:42.259Z,7.37
2017-12-03T12:27:09.021Z,8.03
2017-12-03T12:29:35.775Z,8.50
2017-12-03T12:32:02.601Z,8.70
2017-12-03T12:34:29.427Z,8.90
2017-12-03T12:36:56.166Z,8.60
2017-12-03T12:39:22.995Z,8.73
2017-12-03T12:41:49.832Z,8.10
2017-12-03T12:44:16.636Z,6.70
2017-12-03T12:46:43.598Z,8.17
2017-12-03T12:49:10.375Z,8.70
2017-12-03T12:51:37.161Z,7.47
2017-12-03T12:54:03.980Z,6.40
2017-12-03T12:56:30.803Z,8.67
2017-12-03T12:58:57.657Z,8.30
2017-12-03T13:01:24.487Z,8.27
2017-12-03T13:03:51.255Z,6.03
2017-12-03T13:06:18.011Z,6.80
2017-12-03T13:08:44.790Z,5.73
2017-12-03T13:11:11.545Z,5.90
2017-12-03T13:13:38.310Z,6.90
2017-12-03T13:16:05.095Z,6.13
2017-12-03T13:18:31.852Z,5.60
2017-12-03T13:20:58.611Z,5.37
2017-12-03T13:23:25.414Z,6.23
2017-12-03T13:25:52.176Z,5.50
2017-12-03T13:28:18.930Z,6.27
2017-12-03T13:30:45.727Z,5.60
2017-12-03T13:33:12.458Z,4.13
2017-12-03T13:35:39.187Z,5.37
2017-12-03T13:38:05.979Z,6.00
2017-12-03T13:40:32.723Z,5.00
2017-12-03T13:42:59.501Z,4.67
2017-12-03T13:45:26.299Z,5.23
2017-12-03T13:47:53.066Z,4.33
2017-12-03T13:50:19.823Z,5.17
2017-12-03T13:52:46.658Z,4.87
2017-12-03T13:55:13.419Z,4.07
2017-12-03T13:57:40.163Z,4.70
2017-12-03T14:00:07.070Z,5.00
2017-12-03T14:02:33.839Z,5.03
2017-12-03T14:05:00.607Z,4.07
2017-12-03T14:07:27.476Z,4.00
2017-12-03T14:09:54.247Z,3.60
2017-12-03T14:12:21.042Z,5.50
2017-12-03T14:14:47.838Z,4.20
2017-12-03T14:17:14.615Z,3.30
2017-12-03T14:19:41.363Z,3.97
2017-12-03T14:22:08.177Z,2.77
2017-12-03T14:24:34.973Z,5.17
2017-12-03T14:27:01.724Z,3.10
2017-12-03T14:29:28.524Z,5.13
2017-12-03T14:31:55.293Z,4.50
2017-12-03T14:34:22.054Z,4.20
2017-12-03T14:36:48.876Z,3.57
2017-12-03T14:39:15.624Z,2.60
2017-12-03T14:41:42.391Z,3.23
2017-12-03T14:44:09.204Z,2.83
2017-12-03T14:46:36.025Z,2.80
2017-12-03T14:49:02.812Z,2.70
2017-12-03T14:51:29.662Z,2.73
2017-12-03T14:53:56.438Z,3.13
2017-12-03T14:56:23.200Z,2.63
2017-12-03T14:58:50.018Z,3.47
2017-12-03T15:01:16.772Z,2.70
2017-12-03T15:03:43.564Z,2.53
2017-12-03T15:06:10.371Z,3.57
2017-12-03T15:08:37.135Z,2.80
2017-12-03T15:11:03.954Z,4.10
2017-12-03T15:13:31.696Z,3.60
2017-12-03T15:15:58.463Z,2.93
2017-12-03T15:18:25.268Z,4.27
2017-12-03T15:20:52.099Z,3.60
2017-12-03T15:23:18.898Z,2.90
2017-12-03T15:25:45.782Z,4.00
2017-12-03T15:28:12.635Z,3.57
2017-12-03T15:30:39.403Z,3.63
2017-12-03T15:33:06.203Z,4.20
2017-12-03T15:35:33.065Z,5.10
2017-12-03T15:37:59.835Z,4.63
2017-12-03T15:40:26.629Z,5.10
2017-12-03T15:42:53.457Z,4.10
2017-12-03T15:45:20.260Z,3.97
2017-12-03T15:47:47.020Z,3.37
2017-12-03T15:50:13.847Z,3.80
2017-12-03T15:52:40.665Z,3.90
2017-12-03T15:55:07.455Z,3.93
2017-12-03T15:57:34.287Z,4.27
2017-12-03T16:00:01.099Z,3.90
2017-12-03T16:02:27.883Z,2.17
2017-12-03T16:04:54.708Z,3.07
2017-12-03T16:07:21.512Z,5.10
2017-12-03T16:09:48.288Z,2.53
2017-12-03T16:12:15.125Z,3.50
2017-12-03T16:14:41.918Z,4.30
2017-12-03T16:17:08.707Z,3.50
2017-12-03T16:19:35.891Z,4.00
2017-12-03T16:22:02.747Z,3.60
2017-12-03T16:24:29.566Z,4.20
2017-12-03T16:26:56.408Z,4.57
2017-12-03T16:29:23.172Z,4.10
2017-12-03T16:31:49.935Z,2.90
2017-12-03T16:34:16.774Z,3.00
2017-12-03T16:36:43.556Z,2.20
2017-12-03T16:39:10.323Z,2.70
2017-12-03T16:41:37.118Z,2.50
2017-12-03T16:44:03.897Z,2.50
2017-12-03T16:46:30.643Z,3.97
2017-12-03T16:48:57.430Z,2.87
2017-12-03T16:51:24.223Z,3.93
2017-12-03T16:53:51.010Z,2.70
2017-12-03T16:56:17.883Z,3.40
2017-12-03T16:58:44.666Z,3.97
2017-12-03T17:01:11.475Z,2.47
2017-12-03T17:03:38.286Z,2.30
2017-12-03T17:06:05.062Z,3.50
2017-12-03T17:08:31.842Z,5.30
2017-12-03T17:10:58.628Z,4.90
2017-12-03T17:13:25.435Z,4.97
2017-12-03T17:15:52.231Z,6.43
2017-12-03T17:18:19.105Z,5.83
2017-12-03T17:20:45.871Z,7.60
2017-12-03T17:23:12.757Z,7.80
2017-12-03T17:25:39.634Z,5.80
2017-12-03T17:28:06.853Z,5.27
2017-12-03T17:30:33.654Z,5.07
2017-12-03T17:33:00.528Z,4.07
2017-12-03T17:35:27.282Z,3.57
2017-12-03T17:37:54.074Z,3.90
2017-12-03T17:40:20.941Z,4.53
2017-12-03T17:42:47.758Z,4.80
2017-12-03T17:45:14.546Z,5.60
2017-12-03T17:47:41.384Z,5.27
2017-12-03T17:50:08.130Z,4.10
2017-12-03T17:52:34.975Z,4.70
2017-12-03T17:55:01.781Z,5.20
2017-12-03T17:57:28.558Z,6.87
2017-12-03T17:59:55.353Z,5.80
2017-12-03T18:02:22.186Z,5.67
2017-12-03T18:04:48.990Z,4.50
2017-12-03T18:07:15.728Z,3.17
2017-12-03T18:09:42.525Z,5.67
2017-12-03T18:12:09.265Z,4.90
2017-12-03T18:14:36.026Z,3.53
2017-12-03T18:17:02.838Z,3.10
2017-12-03T18:19:29.583Z,3.40
2017-12-03T18:21:56.323Z,3.10
2017-12-03T18:24:23.174Z,4.50
2017-12-03T18:26:49.952Z,3.10
2017-12-03T18:29:16.734Z,2.97
2017-12-03T18:31:43.558Z,3.47
2017-12-03T18:34:10.645Z,3.40
2017-12-03T18:36:37.464Z,4.00
2017-12-03T18:39:04.341Z,3.63
2017-12-03T18:41:31.178Z,4.37
2017-12-03T18:43:58.020Z,4.20
2017-12-03T18:46:24.874Z,4.57
2017-12-03T18:48:51.676Z,3.33
2017-12-03T18:51:18.533Z,4.73
2017-12-03T18:53:45.441Z,4.50
2017-12-03T18:56:12.286Z,5.10
2017-12-03T18:58:39.102Z,6.77
2017-12-03T19:01:05.977Z,5.30
2017-12-03T19:03:32.834Z,5.13
2017-12-03T19:05:59.608Z,4.87
2017-12-03T19:08:26.486Z,5.00
2017-12-03T19:10:53.279Z,4.27
2017-12-03T19:13:20.081Z,3.23
2017-12-03T19:15:46.942Z,5.25
2017-12-03T19:18:13.743Z,4.50
2017-12-03T19:20:40.538Z,3.50
2017-12-03T19:23:07.373Z,5.40
2017-12-03T19:25:34.174Z,5.10
2017-12-03T19:28:00.977Z,2.90
2017-12-03T19:30:27.798Z,3.23
2017-12-03T19:32:54.573Z,3.20
2017-12-03T19:35:22.045Z,3.20
2017-12-03T19:37:48.859Z,4.90
2017-12-03T19:40:15.647Z,3.70
2017-12-03T19:42:42.436Z,4.00
2017-12-03T19:45:09.243Z,4.43
2017-12-03T19:47:36.087Z,3.00
2017-12-03T19:50:02.879Z,3.93
2017-12-03T19:52:29.742Z,4.30
2017-12-03T19:54:56.505Z,2.93
2017-12-03T19:57:23.298Z,3.70
2017-12-03T19:59:50.107Z,3.87
2017-12-03T20:02:17.135Z,1.20
2017-12-03T20:04:43.912Z,6.27
2017-12-03T20:07:10.759Z,3.80
2017-12-03T20:09:37.770Z,3.30
2017-12-03T20:12:04.561Z,4.40
2017-12-03T20:14:31.441Z,2.80
2017-12-03T20:16:58.235Z,3.33
2017-12-03T20:19:25.026Z,2.40
2017-12-03T20:21:51.838Z,5.43
2017-12-03T20:24:18.608Z,4.00
2017-12-03T20:26:45.409Z,2.77
2017-12-03T20:29:12.183Z,3.13
2017-12-03T20:31:39.014Z,3.17
2017-12-03T20:34:05.790Z,4.77
2017-12-03T20:36:32.643Z,5.30
2017-12-03T20:38:59.431Z,3.03
2017-12-03T20:41:26.227Z,5.03
2017-12-03T20:43:53.168Z,3.23
2017-12-03T20:46:20.037Z,4.30
2017-12-03T20:48:46.854Z,3.97
2017-12-03T20:51:13.667Z,3.30
2017-12-03T20:53:40.478Z,3.20
2017-12-03T20:56:07.244Z,3.60
2017-12-03T20:58:34.058Z,3.50
2017-12-03T21:01:00.827Z,2.90
2017-12-03T21:03:27.570Z,3.60
2017-12-03T21:05:54.371Z,3.20
2017-12-03T21:08:21.567Z,3.13
2017-12-03T21:10:48.339Z,2.83
2017-12-03T21:13:15.155Z,2.67
2017-12-03T21:15:41.957Z,2.80
2017-12-03T21:18:08.740Z,3.00
2017-12-03T21:20:35.539Z,2.80
2017-12-03T21:23:02.374Z,2.80
2017-12-03T21:25:29.142Z,3.63
2017-12-03T21:27:55.978Z,3.90
2017-12-03T21:30:22.759Z,2.47
2017-12-03T21:32:49.561Z,2.20
2017-12-03T21:35:16.366Z,3.60
2017-12-03T21:37:43.160Z,3.27
2017-12-03T21:40:09.942Z,3.50
2017-12-03T21:42:36.735Z,2.40
2017-12-03T21:45:03.544Z,1.70
2017-12-03T21:47:30.301Z,1.83
2017-12-03T21:49:57.087Z,1.77
2017-12-03T21:52:23.850Z,1.83
2017-12-03T21:54:50.606Z,2.03
2017-12-03T21:57:17.409Z,2.90
2017-12-03T21:59:44.149Z,2.60
2017-12-03T22:02:10.891Z,2.83
2017-12-03T22:04:37.687Z,3.70
2017-12-03T22:07:04.426Z,3.20
2017-12-03T22:09:31.187Z,2.83
2017-12-03T22:11:57.996Z,4.40
2017-12-03T22:14:24.753Z,2.23
2017-12-03T22:16:51.508Z,2.20
2017-12-03T22:19:18.297Z,3.27
2017-12-03T22:21:45.070Z,2.70
2017-12-03T22:24:11.835Z,3.33
2017-12-03T22:26:38.742Z,2.83
2017-12-03T22:29:05.460Z,2.93
2017-12-03T22:31:32.202Z,2.50
2017-12-03T22:33:58.999Z,2.53
2017-12-03T22:36:25.737Z,1.43
2017-12-03T22:38:52.505Z,1.70
2017-12-03T22:41:19.299Z,2.97
2017-12-03T22:43:46.080Z,2.17
2017-12-03T22:46:12.824Z,1.93
2017-12-03T22:48:39.601Z,1.70
2017-12-03T22:51:06.358Z,2.37
2017-12-03T22:53:33.122Z,2.30
2017-12-03T22:55:59.920Z,1.73
2017-12-03T22:58:26.666Z,2.00
2017-12-03T23:00:53.446Z,2.33
2017-12-03T23:03:20.223Z,1.57
2017-12-03T23:05:46.958Z,1.73
2017-12-03T23:08:13.702Z,2.30
